Time;durP1;ratioP1;P1;durP2;ratioP2;P2;SDS_P1;SDS_P2;PMS_P1;PMS_P2;Temp;Humidity;BMP_temperature;BMP_pressure;BME280_temperature;BME280_humidity;BME280_pressure;Samples;Min_cycle;Max_cycle;Signal;HPM_P1;HPM_P2
2021/06/03 00:00:48;;;;;;;1.50;0.50;;;23.10;45.40;;;;;;5065143;28;20372;-76
2021/06/03 00:03:15;;;;;;;0.65;0.57;;;23.10;45.20;;;;;;5062838;28;20028;-76
2021/06/03 00:05:44;;;;;;;0.55;0.55;;;23.10;45.40;;;;;;5067606;28;20033;-76
2021/06/03 00:08:11;;;;;;;1.00;0.60;;;23.10;45.50;;;;;;5064276;28;20031;-76
2021/06/03 00:10:41;;;;;;;1.77;0.70;;;23.20;45.50;;;;;;5066271;28;20032;-76
2021/06/03 00:13:08;;;;;;;2.22;0.70;;;23.20;45.40;;;;;;5065115;28;20032;-76
2021/06/03 00:15:36;;;;;;;1.48;0.68;;;23.20;45.30;;;;;;5065661;28;20028;-76
2021/06/03 00:18:04;;;;;;;0.82;0.70;;;23.10;45.50;;;;;;5066554;28;20040;-77
2021/06/03 00:20:33;;;;;;;0.65;0.50;;;23.10;45.70;;;;;;5050414;28;20472;-76
2021/06/03 00:23:00;;;;;;;1.40;0.70;;;23.00;45.90;;;;;;5048369;28;20364;-77
2021/06/03 00:25:27;;;;;;;1.25;0.70;;;23.00;45.90;;;;;;5072467;28;20452;-77
2021/06/03 00:27:55;;;;;;;2.00;0.80;;;23.00;46.10;;;;;;5066504;28;20064;-76
2021/06/03 00:30:22;;;;;;;3.13;0.90;;;23.00;46.10;;;;;;5066842;28;20044;-75
2021/06/03 00:32:49;;;;;;;4.82;0.85;;;23.00;46.40;;;;;;5052042;28;20447;-75
2021/06/03 00:35:16;;;;;;;0.90;0.80;;;22.90;46.20;;;;;;5047290;28;20040;-76
2021/06/03 00:37:43;;;;;;;3.40;0.95;;;22.90;46.00;;;;;;5072257;28;20029;-76
2021/06/03 00:40:11;;;;;;;1.58;0.63;;;22.80;46.30;;;;;;5068188;28;20029;-76
2021/06/03 00:42:40;;;;;;;1.83;0.70;;;22.70;46.90;;;;;;5064957;28;20043;-75
2021/06/03 00:45:09;;;;;;;0.70;0.70;;;22.80;46.70;;;;;;5067290;28;20051;-75
2021/06/03 00:47:36;;;;;;;0.65;0.55;;;22.70;46.90;;;;;;5050468;28;20020;-75
2021/06/03 00:50:08;;;;;;;1.20;0.75;;;22.70;46.90;;;;;;5068482;28;20098;-76
2021/06/03 00:52:34;;;;;;;1.10;0.95;;;22.80;46.70;;;;;;5065375;28;20099;-76
2021/06/03 00:55:01;;;;;;;5.15;1.80;;;22.80;46.50;;;;;;5064050;28;20032;-76
2021/06/03 00:57:27;;;;;;;0.75;0.75;;;22.80;46.50;;;;;;5065561;28;20078;-76
2021/06/03 00:59:54;;;;;;;1.08;0.70;;;22.70;46.70;;;;;;5067572;28;20024;-75
2021/06/03 01:02:20;;;;;;;2.53;1.05;;;22.40;47.10;;;;;;5071235;28;20105;-75
2021/06/03 01:04:47;;;;;;;1.70;0.80;;;22.20;47.30;;;;;;5065054;28;20029;-76
2021/06/03 01:07:13;;;;;;;1.80;0.75;;;22.10;47.80;;;;;;5065366;28;21701;-76
2021/06/03 01:09:53;;;;;;;4.95;1.00;;;22.00;48.10;;;;;;5063215;28;20067;-77
2021/06/03 01:12:24;;;;;;;1.08;0.77;;;21.80;48.40;;;;;;5055125;28;20028;-77
2021/06/03 01:14:59;;;;;;;1.42;1.20;;;21.70;48.20;;;;;;5051785;28;20028;-76
2021/06/03 01:17:26;;;;;;;1.23;0.90;;;21.60;48.90;;;;;;5064848;28;20028;-77
2021/06/03 01:19:54;;;;;;;1.02;0.75;;;21.60;49.10;;;;;;5068354;28;20356;-76
2021/06/03 01:22:39;;;;;;;2.15;1.13;;;21.40;49.20;;;;;;5066341;28;20356;-77
2021/06/03 01:25:11;;;;;;;0.70;0.70;;;21.50;49.40;;;;;;5065854;28;20417;-76
2021/06/03 01:27:39;;;;;;;2.53;0.82;;;21.50;49.40;;;;;;5066421;28;20029;-77
2021/06/03 01:30:27;;;;;;;0.98;0.77;;;21.40;49.70;;;;;;5053016;28;20085;-75
2021/06/03 01:33:00;;;;;;;0.75;0.75;;;21.40;49.50;;;;;;5066922;28;20028;-76
2021/06/03 01:35:34;;;;;;;0.82;0.82;;;21.40;49.70;;;;;;5066759;28;20068;-76
2021/06/03 01:38:07;;;;;;;1.50;0.90;;;21.30;49.60;;;;;;5069481;28;20029;-75
2021/06/03 01:40:37;;;;;;;1.13;1.00;;;21.30;49.90;;;;;;5064730;28;20028;-76
2021/06/03 01:43:05;;;;;;;2.13;1.75;;;21.10;50.10;;;;;;5068698;28;20024;-76
2021/06/03 01:45:33;;;;;;;0.80;0.73;;;21.00;50.30;;;;;;5066336;28;20024;-76
2021/06/03 01:47:59;;;;;;;1.58;0.90;;;20.90;50.40;;;;;;5058382;28;20027;-76
2021/06/03 01:50:26;;;;;;;1.15;1.02;;;20.80;50.90;;;;;;5078129;28;20017;-74
2021/06/03 01:52:53;;;;;;;1.48;0.90;;;20.60;51.40;;;;;;5069292;28;20021;-76
2021/06/03 01:55:20;;;;;;;1.40;1.30;;;20.40;51.60;;;;;;5076022;28;20024;-77
2021/06/03 01:57:47;;;;;;;4.03;1.60;;;20.30;52.20;;;;;;5072374;28;20036;-74
2021/06/03 02:00:17;;;;;;;2.40;1.27;;;20.00;52.10;;;;;;5070751;28;20104;-77
2021/06/03 02:02:43;;;;;;;0.90;0.90;;;19.90;52.60;;;;;;5066587;28;20020;-76
2021/06/03 02:05:10;;;;;;;3.42;1.10;;;19.80;53.00;;;;;;5055758;28;20033;-75
2021/06/03 02:07:37;;;;;;;2.88;1.33;;;19.50;52.90;;;;;;5066662;28;20025;-76
2021/06/03 02:10:06;;;;;;;1.38;1.27;;;19.50;53.80;;;;;;5047658;28;20443;-76
2021/06/03 02:12:35;;;;;;;2.30;1.75;;;19.20;54.30;;;;;;5045798;28;20107;-76
2021/06/03 02:15:05;;;;;;;3.20;1.48;;;19.10;54.30;;;;;;5049409;28;20043;-76
2021/06/03 02:17:46;;;;;;;1.13;1.05;;;19.00;54.90;;;;;;5065710;28;20041;-76
2021/06/03 02:20:19;;;;;;;2.92;1.30;;;18.80;54.80;;;;;;5064068;28;20110;-78
2021/06/03 02:22:49;;;;;;;6.88;1.75;;;18.70;55.50;;;;;;5068227;28;20086;-77
2021/06/03 02:25:18;;;;;;;2.08;1.25;;;18.60;56.20;;;;;;5067268;28;20481;-75
2021/06/03 02:27:47;;;;;;;1.38;1.20;;;18.60;56.60;;;;;;5072986;28;20082;-75
2021/06/03 02:30:17;;;;;;;2.95;1.52;;;18.40;56.30;;;;;;5066083;28;20024;-75
2021/06/03 02:32:44;;;;;;;1.17;1.08;;;18.30;57.60;;;;;;5049156;28;20025;-76
2021/06/03 02:35:11;;;;;;;6.03;2.42;;;18.20;57.40;;;;;;5067763;28;20021;-76
2021/06/03 02:37:39;;;;;;;1.27;1.20;;;18.00;57.10;;;;;;5066519;28;20025;-75
2021/06/03 02:40:10;;;;;;;3.55;1.40;;;17.80;57.80;;;;;;5066475;28;20064;-76
2021/06/03 02:42:39;;;;;;;1.00;1.00;;;17.90;58.20;;;;;;5072214;28;20020;-75
2021/06/03 02:45:20;;;;;;;2.70;1.55;;;17.70;58.00;;;;;;5058943;28;20036;-75
2021/06/03 02:47:46;;;;;;;2.75;1.15;;;17.60;58.40;;;;;;5071391;28;20098;-76
2021/06/03 02:50:14;;;;;;;3.08;1.20;;;17.60;59.10;;;;;;5066936;28;20064;-75
2021/06/03 02:52:41;;;;;;;3.45;1.23;;;17.50;59.30;;;;;;5050120;28;20060;-78
2021/06/03 02:55:11;;;;;;;1.42;1.13;;;17.40;59.40;;;;;;5053107;28;20115;-75
2021/06/03 02:57:39;;;;;;;2.15;1.65;;;17.30;60.00;;;;;;5071048;28;20025;-77
2021/06/03 03:00:15;;;;;;;1.90;1.63;;;17.30;59.70;;;;;;5071958;28;20032;-77
2021/06/03 03:02:41;;;;;;;1.35;1.25;;;17.20;59.90;;;;;;5072185;28;20059;-75
2021/06/03 03:05:08;;;;;;;1.23;1.20;;;17.10;61.00;;;;;;5072819;28;20055;-77
2021/06/03 03:07:35;;;;;;;1.70;1.60;;;16.90;60.70;;;;;;5050577;28;20052;-76
2021/06/03 03:10:05;;;;;;;2.25;1.23;;;16.90;61.40;;;;;;5072445;28;20066;-77
2021/06/03 03:12:32;;;;;;;7.47;2.45;;;16.70;60.50;;;;;;5053944;28;20363;-77
2021/06/03 03:14:58;;;;;;;3.42;1.27;;;16.70;61.30;;;;;;5070061;28;20028;-75
2021/06/03 03:17:25;;;;;;;2.60;1.75;;;16.70;60.40;;;;;;5069830;28;20091;-77
2021/06/03 03:19:51;;;;;;;1.60;1.50;;;16.70;61.60;;;;;;5070175;28;20036;-77
2021/06/03 03:22:18;;;;;;;1.63;1.52;;;16.60;61.80;;;;;;5051576;28;20105;-77
2021/06/03 03:24:44;;;;;;;2.28;1.60;;;16.60;63.20;;;;;;5067333;28;20513;-75
2021/06/03 03:27:10;;;;;;;1.70;1.33;;;16.70;63.30;;;;;;5070538;28;20032;-76
2021/06/03 03:29:37;;;;;;;2.35;1.50;;;16.60;62.80;;;;;;5067885;28;20032;-77
2021/06/03 03:32:04;;;;;;;1.92;1.73;;;16.50;63.50;;;;;;5069381;28;20070;-77
2021/06/03 03:34:30;;;;;;;3.22;1.38;;;16.40;64.10;;;;;;5072344;28;20448;-76
2021/06/03 03:36:57;;;;;;;5.80;2.90;;;16.30;63.00;;;;;;5070250;28;20036;-77
2021/06/03 03:39:23;;;;;;;4.40;1.65;;;16.20;63.40;;;;;;5076347;28;20119;-76
2021/06/03 03:41:50;;;;;;;1.52;1.42;;;16.20;65.10;;;;;;5050293;28;20029;-76
2021/06/03 03:44:16;;;;;;;1.15;1.15;;;16.10;64.00;;;;;;5068452;28;20021;-77
2021/06/03 03:46:43;;;;;;;1.77;1.67;;;16.10;64.80;;;;;;5053274;28;20029;-77
2021/06/03 03:49:09;;;;;;;1.38;1.27;;;16.00;65.90;;;;;;5067124;28;20036;-76
2021/06/03 03:51:36;;;;;;;1.58;1.13;;;16.00;65.10;;;;;;5055361;28;20013;-77
2021/06/03 03:54:02;;;;;;;1.42;1.33;;;15.80;65.50;;;;;;5073759;28;20020;-77
2021/06/03 03:56:29;;;;;;;1.58;1.42;;;15.80;65.20;;;;;;5050233;28;20036;-77
2021/06/03 03:58:56;;;;;;;1.88;1.50;;;15.80;66.40;;;;;;5067396;28;20174;-76
2021/06/03 04:01:22;;;;;;;2.70;1.83;;;15.80;66.30;;;;;;5054460;28;20402;-76
2021/06/03 04:03:50;;;;;;;2.47;2.28;;;15.90;66.40;;;;;;5067977;28;20047;-77
2021/06/03 04:06:16;;;;;;;3.35;1.88;;;15.90;66.60;;;;;;5069086;28;20020;-76
2021/06/03 04:08:43;;;;;;;1.40;1.30;;;15.90;66.70;;;;;;5046501;28;20031;-76
2021/06/03 04:11:09;;;;;;;2.25;2.08;;;15.90;66.40;;;;;;5069216;28;20043;-77
2021/06/03 04:13:36;;;;;;;1.35;1.25;;;15.90;66.60;;;;;;5068328;28;20370;-76
2021/06/03 04:16:04;;;;;;;1.33;1.23;;;15.70;66.70;;;;;;5065699;28;20025;-76
2021/06/03 04:18:30;;;;;;;2.10;1.42;;;15.70;66.80;;;;;;5070554;28;20032;-78
2021/06/03 04:20:57;;;;;;;3.28;1.52;;;15.70;66.60;;;;;;5058596;28;20032;-77
2021/06/03 04:23:23;;;;;;;1.38;1.27;;;15.70;66.40;;;;;;5072202;28;20472;-77
2021/06/03 04:25:50;;;;;;;1.85;1.55;;;15.60;66.70;;;;;;5048961;28;20039;-77
2021/06/03 04:28:16;;;;;;;1.30;1.20;;;15.60;66.50;;;;;;5067740;28;20020;-77
2021/06/03 04:30:45;;;;;;;1.73;1.40;;;15.60;66.80;;;;;;5071137;28;20079;-77
2021/06/03 04:33:15;;;;;;;1.58;1.20;;;15.60;65.60;;;;;;5074382;28;20050;-77
2021/06/03 04:35:41;;;;;;;1.67;1.20;;;15.50;66.90;;;;;;5067845;28;20167;-76
2021/06/03 04:38:08;;;;;;;1.42;1.33;;;15.60;66.80;;;;;;5068152;28;20025;-77
2021/06/03 04:40:34;;;;;;;1.00;1.00;;;15.50;65.70;;;;;;5068699;28;20082;-77
2021/06/03 04:43:01;;;;;;;0.90;0.90;;;15.50;66.20;;;;;;5048515;28;20033;-76
2021/06/03 04:45:28;;;;;;;1.23;1.13;;;15.50;65.80;;;;;;5050064;28;20036;-76
2021/06/03 04:47:54;;;;;;;1.65;1.40;;;15.60;66.20;;;;;;5070371;28;20032;-77
2021/06/03 04:50:22;;;;;;;8.60;3.20;;;15.40;65.80;;;;;;5063606;28;20133;-78
2021/06/03 04:52:49;;;;;;;3.53;1.27;;;15.50;66.40;;;;;;5063228;28;20368;-77
2021/06/03 04:55:18;;;;;;;4.22;0.95;;;15.60;66.40;;;;;;5057616;28;20467;-78
2021/06/03 04:57:45;;;;;;;1.50;1.40;;;15.50;66.20;;;;;;5068256;28;20044;-77
2021/06/03 05:00:39;;;;;;;1.15;1.10;;;15.60;66.90;;;;;;5065100;28;20021;-77
2021/06/03 05:03:07;;;;;;;1.98;1.45;;;15.80;66.60;;;;;;5052487;28;20032;-77
2021/06/03 05:05:34;;;;;;;1.85;1.55;;;15.80;67.50;;;;;;5074682;28;20020;-77
2021/06/03 05:08:00;;;;;;;1.35;1.25;;;15.80;67.50;;;;;;5044702;28;20360;-77
2021/06/03 05:10:29;;;;;;;1.15;1.10;;;15.70;66.40;;;;;;5065636;28;20450;-77
2021/06/03 05:12:56;;;;;;;1.73;1.40;;;15.70;66.80;;;;;;5068381;28;20038;-76
2021/06/03 05:15:23;;;;;;;1.80;1.58;;;15.70;68.00;;;;;;5066841;28;20017;-77
2021/06/03 05:17:51;;;;;;;1.17;1.17;;;15.70;67.50;;;;;;5071483;28;20032;-77
2021/06/03 05:20:19;;;;;;;1.13;1.13;;;15.60;67.70;;;;;;5047010;28;20028;-78
2021/06/03 05:22:47;;;;;;;2.08;1.10;;;15.60;67.90;;;;;;5045774;28;20426;-78
2021/06/03 05:25:16;;;;;;;1.30;1.00;;;15.60;66.70;;;;;;5070674;28;20050;-77
2021/06/03 05:27:44;;;;;;;1.83;1.05;;;15.70;67.50;;;;;;5053932;28;20028;-77
2021/06/03 05:30:12;;;;;;;1.10;1.10;;;15.70;67.30;;;;;;5069156;28;20099;-77
2021/06/03 05:32:39;;;;;;;1.35;1.02;;;15.60;66.80;;;;;;5054877;28;20024;-78
2021/06/03 05:35:08;;;;;;;1.77;1.25;;;15.60;67.60;;;;;;5066730;28;20459;-77
2021/06/03 05:37:35;;;;;;;1.00;1.00;;;15.60;67.80;;;;;;5065387;28;20048;-77
2021/06/03 05:40:03;;;;;;;4.18;1.33;;;15.60;67.90;;;;;;5052334;28;20040;-77
2021/06/03 05:42:30;;;;;;;1.83;1.42;;;15.60;68.30;;;;;;5055992;28;20051;-77
2021/06/03 05:44:57;;;;;;;1.83;1.10;;;15.70;68.00;;;;;;5070913;28;20121;-77
2021/06/03 05:47:23;;;;;;;2.30;0.85;;;15.50;67.40;;;;;;5061947;28;20368;-78
2021/06/03 05:49:50;;;;;;;0.90;0.90;;;15.40;67.90;;;;;;5072745;28;20024;-77
2021/06/03 05:52:16;;;;;;;0.80;0.80;;;15.40;67.70;;;;;;5055900;28;20016;-77
2021/06/03 05:54:43;;;;;;;0.85;0.85;;;15.40;67.80;;;;;;5070420;28;20028;-78
2021/06/03 05:57:09;;;;;;;1.00;1.00;;;15.50;69.20;;;;;;5068351;28;20024;-78
2021/06/03 05:59:36;;;;;;;1.10;1.10;;;15.40;68.10;;;;;;5073625;28;20514;-77
2021/06/03 06:02:05;;;;;;;1.65;1.13;;;15.50;68.10;;;;;;5070989;28;20031;-78
2021/06/03 06:07:17;;;;;;;2.05;1.08;;;15.40;68.40;;;;;;5066560;28;20074;-78
2021/06/03 06:09:43;;;;;;;1.88;1.20;;;15.50;69.10;;;;;;5054842;28;20070;-77
2021/06/03 06:12:10;;;;;;;0.90;0.90;;;15.50;68.80;;;;;;5070503;28;20456;-78
2021/06/03 06:14:36;;;;;;;2.55;1.02;;;15.50;68.20;;;;;;5064469;28;20462;-77
2021/06/03 06:17:03;;;;;;;1.77;0.93;;;15.60;68.50;;;;;;5074061;28;20082;-78
2021/06/03 06:19:31;;;;;;;1.23;1.20;;;15.40;68.50;;;;;;5072198;28;20025;-79
2021/06/03 06:21:57;;;;;;;0.88;0.88;;;15.40;68.40;;;;;;5058502;28;20098;-79
2021/06/03 06:24:23;;;;;;;0.80;0.80;;;15.30;68.10;;;;;;5069461;28;20107;-77
2021/06/03 06:26:50;;;;;;;1.92;1.02;;;15.40;69.20;;;;;;5065359;28;20074;-79
2021/06/03 06:29:16;;;;;;;1.08;1.00;;;15.50;68.70;;;;;;5049326;28;20075;-77
2021/06/03 06:31:43;;;;;;;1.10;1.10;;;15.40;68.60;;;;;;5054328;28;20020;-78
2021/06/03 06:34:10;;;;;;;0.80;0.80;;;15.50;68.80;;;;;;5066616;28;20021;-79
2021/06/03 06:36:36;;;;;;;0.95;0.95;;;15.40;68.60;;;;;;5063266;28;20040;-77
2021/06/03 06:39:04;;;;;;;1.15;0.90;;;15.40;68.80;;;;;;5065291;28;20456;-77
2021/06/03 06:41:31;;;;;;;0.98;0.98;;;15.30;68.80;;;;;;5063822;28;20025;-77
2021/06/03 06:43:57;;;;;;;1.58;0.98;;;15.30;69.20;;;;;;5049920;28;20586;-77
2021/06/03 06:46:23;;;;;;;1.23;1.17;;;15.30;69.00;;;;;;5071314;28;20119;-77
2021/06/03 06:48:50;;;;;;;1.38;1.00;;;15.20;68.80;;;;;;5070207;28;20021;-77
2021/06/03 06:51:16;;;;;;;1.90;1.80;;;15.10;68.90;;;;;;5070337;28;20036;-77
2021/06/03 06:53:43;;;;;;;0.75;0.73;;;15.10;69.40;;;;;;5067470;28;20072;-77
2021/06/03 06:56:09;;;;;;;1.00;0.90;;;15.10;68.70;;;;;;5054361;28;20028;-77
2021/06/03 06:58:36;;;;;;;0.93;0.93;;;15.30;68.90;;;;;;5064676;28;20029;-76
2021/06/03 07:01:02;;;;;;;1.17;0.93;;;15.20;69.00;;;;;;5052377;28;20036;-77
2021/06/03 07:03:28;;;;;;;0.70;0.70;;;15.20;69.20;;;;;;5066075;28;20536;-77
2021/06/03 07:05:55;;;;;;;1.08;1.08;;;15.20;69.10;;;;;;5068940;28;20115;-77
2021/06/03 07:08:22;;;;;;;3.40;1.52;;;15.30;69.40;;;;;;5067880;28;20170;-77
2021/06/03 07:10:48;;;;;;;1.00;0.95;;;15.40;69.70;;;;;;5065633;28;20024;-77
2021/06/03 07:13:15;;;;;;;1.80;1.10;;;15.40;69.50;;;;;;5063871;28;20340;-77
2021/06/03 07:15:41;;;;;;;1.13;0.90;;;15.40;69.50;;;;;;5066571;28;20056;-77
2021/06/03 07:18:08;;;;;;;3.22;1.58;;;15.20;69.80;;;;;;5063443;28;20040;-77
2021/06/03 07:20:35;;;;;;;1.63;0.95;;;15.20;69.20;;;;;;5065719;28;20037;-77
2021/06/03 07:23:06;;;;;;;0.80;0.80;;;15.20;69.70;;;;;;5062491;28;20021;-77
2021/06/03 07:25:39;;;;;;;0.90;0.90;;;15.20;70.30;;;;;;5064842;28;21549;-77
2021/06/03 07:28:08;;;;;;;0.82;0.82;;;15.20;70.20;;;;;;5066373;28;20388;-77
2021/06/03 07:30:35;;;;;;;1.10;1.00;;;15.30;70.40;;;;;;5066183;28;20034;-77
2021/06/03 07:33:03;;;;;;;0.88;0.88;;;15.30;70.30;;;;;;5053279;28;20017;-76
2021/06/03 07:35:32;;;;;;;1.05;1.05;;;15.20;69.60;;;;;;5068364;28;20028;-77
2021/06/03 07:37:58;;;;;;;1.10;1.10;;;15.10;70.40;;;;;;5070781;28;20083;-77
2021/06/03 07:40:28;;;;;;;1.60;1.08;;;15.30;70.30;;;;;;5066910;28;20075;-77
2021/06/03 07:42:54;;;;;;;0.85;0.85;;;15.20;70.60;;;;;;5075880;28;20029;-77
2021/06/03 07:45:23;;;;;;;0.90;0.90;;;15.10;70.50;;;;;;5081153;28;20453;-76
2021/06/03 07:47:51;;;;;;;1.10;1.10;;;14.90;71.00;;;;;;5081066;28;20108;-77
2021/06/03 07:50:18;;;;;;;0.90;0.90;;;14.90;70.10;;;;;;5081477;28;20005;-77
2021/06/03 07:52:45;;;;;;;0.90;0.90;;;15.00;70.50;;;;;;5076105;28;20035;-76
2021/06/03 07:55:16;;;;;;;3.50;1.15;;;15.10;70.90;;;;;;5062619;28;20033;-76
2021/06/03 07:57:45;;;;;;;1.17;1.17;;;15.10;70.90;;;;;;5074873;28;20440;-77
2021/06/03 08:00:14;;;;;;;1.10;1.00;;;15.00;71.30;;;;;;5068802;28;20021;-76
2021/06/03 08:02:43;;;;;;;0.80;0.80;;;15.20;70.90;;;;;;5072213;28;20020;-77
2021/06/03 08:05:10;;;;;;;1.67;1.27;;;15.10;70.90;;;;;;5069935;28;20032;-76
2021/06/03 08:07:37;;;;;;;3.60;1.10;;;15.10;70.80;;;;;;5051478;28;20024;-76
2021/06/03 08:10:10;;;;;;;0.90;0.90;;;15.10;71.30;;;;;;5067797;28;20028;-76
2021/06/03 08:12:36;;;;;;;3.42;1.23;;;15.20;71.50;;;;;;5069044;28;20020;-76
2021/06/03 08:15:07;;;;;;;0.80;0.80;;;15.20;71.00;;;;;;5065716;28;20033;-78
2021/06/03 08:17:33;;;;;;;0.80;0.80;;;15.10;71.90;;;;;;5066382;28;20055;-78
2021/06/03 08:20:00;;;;;;;0.95;0.95;;;15.10;70.90;;;;;;5067994;28;20047;-78
2021/06/03 08:22:26;;;;;;;0.80;0.80;;;15.20;71.10;;;;;;5072114;28;20029;-76
2021/06/03 08:24:53;;;;;;;0.82;0.82;;;15.30;71.20;;;;;;5069649;28;20025;-76
2021/06/03 08:27:19;;;;;;;0.80;0.80;;;15.20;71.40;;;;;;5069753;28;20047;-77
2021/06/03 08:29:46;;;;;;;3.42;0.80;;;15.10;70.60;;;;;;5073298;28;22135;-76
2021/06/03 08:32:12;;;;;;;1.00;0.90;;;15.10;71.00;;;;;;5072377;28;20548;-76
2021/06/03 08:34:39;;;;;;;0.70;0.70;;;15.20;70.90;;;;;;5047990;28;20024;-76
2021/06/03 08:37:05;;;;;;;0.90;0.90;;;15.20;70.30;;;;;;5071797;28;20047;-76
2021/06/03 08:39:32;;;;;;;2.38;1.00;;;15.20;70.20;;;;;;5069257;28;20032;-77
2021/06/03 08:41:58;;;;;;;1.20;1.10;;;15.00;70.10;;;;;;5075155;28;20478;-76
2021/06/03 08:44:30;;;;;;;0.90;0.90;;;15.00;70.30;;;;;;5068662;28;20024;-75
2021/06/03 08:46:57;;;;;;;1.00;1.00;;;14.80;71.00;;;;;;5074079;28;20028;-76
2021/06/03 08:49:24;;;;;;;1.23;0.90;;;14.80;70.60;;;;;;5075103;28;20033;-76
2021/06/03 08:51:53;;;;;;;0.90;0.90;;;15.00;71.10;;;;;;5073278;28;20028;-78
2021/06/03 08:54:20;;;;;;;1.15;1.05;;;14.90;70.70;;;;;;5075113;28;20029;-75
2021/06/03 08:56:47;;;;;;;0.93;0.93;;;14.80;70.60;;;;;;5074629;28;20025;-78
2021/06/03 08:59:13;;;;;;;2.65;1.13;;;14.70;70.80;;;;;;5071845;28;20142;-77
2021/06/03 09:01:41;;;;;;;0.95;0.82;;;14.70;71.10;;;;;;5050275;28;20025;-77
2021/06/03 09:04:07;;;;;;;0.70;0.70;;;14.80;71.00;;;;;;5064960;28;20103;-77
2021/06/03 09:06:34;;;;;;;0.90;0.90;;;14.80;70.70;;;;;;5069467;28;20024;-77
2021/06/03 09:09:01;;;;;;;2.38;1.02;;;14.90;71.00;;;;;;5044378;28;20021;-77
2021/06/03 09:11:29;;;;;;;0.80;0.80;;;14.90;69.80;;;;;;5049793;28;20375;-77
2021/06/03 09:13:58;;;;;;;1.35;1.25;;;14.80;70.10;;;;;;5070013;28;20021;-78
2021/06/03 09:16:27;;;;;;;1.63;0.90;;;14.90;71.30;;;;;;5070398;28;20024;-77
2021/06/03 09:18:54;;;;;;;1.15;1.05;;;14.80;70.70;;;;;;5068431;28;20490;-78
2021/06/03 09:21:30;;;;;;;2.20;0.80;;;14.80;71.40;;;;;;5065646;28;20043;-77
2021/06/03 09:24:00;;;;;;;1.00;1.00;;;14.70;70.90;;;;;;5073221;28;20029;-77
2021/06/03 09:26:29;;;;;;;1.10;1.10;;;14.70;71.40;;;;;;5066907;28;20077;-77
2021/06/03 09:28:57;;;;;;;1.23;1.23;;;14.70;71.70;;;;;;5069192;28;20029;-77
2021/06/03 09:31:29;;;;;;;1.08;1.08;;;14.60;72.10;;;;;;5067924;28;20040;-77
2021/06/03 09:34:00;;;;;;;0.93;0.93;;;14.60;72.10;;;;;;5065295;28;20032;-76
2021/06/03 09:37:03;;;;;;;0.98;0.98;;;14.70;71.40;;;;;;5071436;28;20468;-78
2021/06/03 09:39:34;;;;;;;0.82;0.82;;;14.80;71.70;;;;;;4995864;28;20038;-76
2021/06/03 09:42:15;;;;;;;0.93;0.93;;;14.90;71.10;;;;;;5053687;28;20083;-77
2021/06/03 09:44:49;;;;;;;7.28;1.38;;;14.80;71.40;;;;;;5064600;28;20025;-77
2021/06/03 09:47:21;;;;;;;3.85;1.00;;;14.80;71.30;;;;;;5067488;28;20024;-77
2021/06/03 09:49:58;;;;;;;0.82;0.82;;;14.90;71.50;;;;;;5067906;28;20387;-76
2021/06/03 09:52:27;;;;;;;0.95;0.95;;;14.80;71.10;;;;;;5051276;28;20532;-77
2021/06/03 09:54:57;;;;;;;1.38;1.08;;;14.80;72.00;;;;;;5071983;28;20028;-77
2021/06/03 09:57:39;;;;;;;0.95;0.95;;;14.90;70.80;;;;;;5066883;28;20013;-76
2021/06/03 10:00:19;;;;;;;1.17;0.90;;;15.00;70.70;;;;;;5065041;28;20024;-77
2021/06/03 10:02:47;;;;;;;1.33;1.30;;;14.90;70.70;;;;;;5065408;28;20028;-78
2021/06/03 10:05:41;;;;;;;0.95;0.90;;;14.90;70.80;;;;;;5073654;28;20115;-77
2021/06/03 10:08:08;;;;;;;3.30;0.95;;;14.90;71.30;;;;;;5070910;28;20440;-77
2021/06/03 10:10:39;;;;;;;0.90;0.90;;;14.90;71.70;;;;;;5066896;28;20082;-77
2021/06/03 10:13:07;;;;;;;0.80;0.80;;;14.80;71.40;;;;;;5064239;28;20592;-77
2021/06/03 10:15:39;;;;;;;1.85;1.00;;;14.80;70.90;;;;;;5070051;28;20025;-77
2021/06/03 10:18:18;;;;;;;0.82;0.82;;;14.80;71.70;;;;;;5063109;28;20025;-78
2021/06/03 10:20:50;;;;;;;0.80;0.80;;;14.80;71.30;;;;;;5072003;28;20059;-77
2021/06/03 10:23:22;;;;;;;1.55;0.80;;;14.80;71.80;;;;;;5055207;28;20025;-77
2021/06/03 10:25:54;;;;;;;0.70;0.70;;;14.80;70.60;;;;;;5068968;28;20032;-77
2021/06/03 10:28:21;;;;;;;1.15;1.15;;;14.60;71.20;;;;;;5071803;28;20047;-77
2021/06/03 10:30:53;;;;;;;0.95;0.95;;;14.60;71.00;;;;;;5064729;28;20024;-77
2021/06/03 10:33:22;;;;;;;1.55;1.00;;;14.70;71.30;;;;;;5064622;28;20109;-77
2021/06/03 10:35:52;;;;;;;1.85;0.90;;;14.60;71.40;;;;;;5062704;28;20086;-77
2021/06/03 10:38:20;;;;;;;1.00;0.93;;;14.70;71.40;;;;;;5073191;28;20435;-77
2021/06/03 10:41:09;;;;;;;0.85;0.85;;;14.70;71.20;;;;;;5070103;28;20025;-77
2021/06/03 10:43:37;;;;;;;1.00;1.00;;;14.60;71.10;;;;;;5068415;28;20049;-78
2021/06/03 10:46:05;;;;;;;1.33;0.90;;;14.50;71.50;;;;;;5064034;28;20408;-77
2021/06/03 10:48:32;;;;;;;0.82;0.82;;;14.70;71.80;;;;;;5054511;28;20482;-78
2021/06/03 10:51:03;;;;;;;0.90;0.90;;;14.60;71.50;;;;;;5066988;28;20036;-77
2021/06/03 10:53:30;;;;;;;0.98;0.98;;;14.50;71.80;;;;;;5070949;28;20753;-77
2021/06/03 10:56:27;;;;;;;0.90;0.90;;;14.50;71.80;;;;;;5063045;28;20039;-77
2021/06/03 10:58:55;;;;;;;0.80;0.80;;;14.60;71.40;;;;;;5067372;28;20039;-77
2021/06/03 11:01:23;;;;;;;0.98;0.93;;;14.70;71.70;;;;;;5063954;28;20111;-77
2021/06/03 11:03:58;;;;;;;0.93;0.90;;;14.80;71.20;;;;;;5071231;28;20020;-77
2021/06/03 11:06:30;;;;;;;1.52;1.05;;;14.80;71.80;;;;;;5075501;28;20035;-77
2021/06/03 11:09:01;;;;;;;1.50;1.00;;;14.60;71.30;;;;;;5076357;28;20399;-77
2021/06/03 11:11:34;;;;;;;0.90;0.90;;;14.50;71.70;;;;;;5068944;28;20031;-76
2021/06/03 11:14:03;;;;;;;0.93;0.93;;;14.50;71.80;;;;;;5067526;28;20052;-77
2021/06/03 11:16:35;;;;;;;0.90;0.90;;;14.40;72.30;;;;;;5074715;28;20037;-77
2021/06/03 11:19:01;;;;;;;1.23;1.23;;;14.30;72.40;;;;;;5057308;28;20035;-77
2021/06/03 11:21:37;;;;;;;1.10;1.00;;;14.40;72.70;;;;;;5057767;28;20341;-77
2021/06/03 11:24:16;;;;;;;0.93;0.93;;;14.40;72.20;;;;;;5052067;28;20029;-77
2021/06/03 11:26:45;;;;;;;0.80;0.80;;;14.30;72.00;;;;;;5070747;28;20115;-77
2021/06/03 11:29:26;;;;;;;0.93;0.93;;;14.30;71.80;;;;;;5058304;28;20036;-78
2021/06/03 11:32:12;;;;;;;4.18;1.30;;;14.30;71.90;;;;;;5074676;28;20407;-76
2021/06/03 11:34:43;;;;;;;0.80;0.80;;;14.50;71.50;;;;;;5070403;28;20410;-77
2021/06/03 11:37:21;;;;;;;0.90;0.90;;;14.20;72.20;;;;;;5068103;28;20055;-77
2021/06/03 11:40:00;;;;;;;3.15;1.85;;;14.40;72.00;;;;;;5075460;28;20074;-77
2021/06/03 11:42:33;;;;;;;1.00;1.00;;;14.60;71.90;;;;;;5074869;28;20402;-77
2021/06/03 11:45:22;;;;;;;0.95;0.95;;;14.40;70.80;;;;;;5069937;28;20017;-77
2021/06/03 11:47:51;;;;;;;0.80;0.80;;;14.30;71.70;;;;;;5071381;28;20142;-77
2021/06/03 11:50:18;;;;;;;0.93;0.90;;;14.20;71.80;;;;;;5072727;28;20086;-77
2021/06/03 11:52:54;;;;;;;0.88;0.88;;;14.20;72.20;;;;;;5071327;28;20028;-77
2021/06/03 11:55:52;;;;;;;0.93;0.93;;;14.30;71.90;;;;;;5071251;28;20082;-77
2021/06/03 11:58:33;;;;;;;0.93;0.93;;;14.20;72.10;;;;;;5068731;28;20048;-77
2021/06/03 12:01:28;;;;;;;2.55;0.90;;;14.30;71.40;;;;;;5071019;28;20036;-77
2021/06/03 12:04:13;;;;;;;1.15;1.10;;;14.20;71.90;;;;;;5068499;28;20025;-77
2021/06/03 12:06:45;;;;;;;1.17;1.17;;;14.10;71.90;;;;;;5068789;28;20519;-77
2021/06/03 12:09:23;;;;;;;0.90;0.90;;;14.50;71.90;;;;;;5069297;28;20032;-76
2021/06/03 12:11:53;;;;;;;0.90;0.90;;;14.30;71.20;;;;;;5055762;28;20035;-76
2021/06/03 12:14:24;;;;;;;0.98;0.88;;;14.30;71.30;;;;;;5069705;28;20028;-77
2021/06/03 12:16:53;;;;;;;1.38;1.38;;;14.30;71.40;;;;;;5055902;28;20033;-77
2021/06/03 12:19:22;;;;;;;1.33;1.00;;;14.20;71.60;;;;;;5067912;28;20027;-78
2021/06/03 12:21:55;;;;;;;0.90;0.90;;;14.30;71.30;;;;;;5069358;28;20032;-78
2021/06/03 12:24:42;;;;;;;0.80;0.80;;;14.20;71.50;;;;;;5072073;28;20039;-77
2021/06/03 12:27:27;;;;;;;0.80;0.80;;;14.20;71.20;;;;;;5067942;28;20040;-77
2021/06/03 12:29:57;;;;;;;0.75;0.75;;;14.20;71.50;;;;;;5052516;28;20027;-77
2021/06/03 12:32:24;;;;;;;1.00;1.00;;;14.00;71.50;;;;;;5073356;28;20021;-77
2021/06/03 12:34:50;;;;;;;2.05;1.08;;;14.10;71.80;;;;;;5066479;28;20020;-77
2021/06/03 12:37:33;;;;;;;0.75;0.75;;;14.00;71.80;;;;;;5065524;28;20115;-77
2021/06/03 12:40:04;;;;;;;0.80;0.80;;;14.00;72.10;;;;;;5056693;28;20020;-77
2021/06/03 12:42:31;;;;;;;1.45;1.17;;;14.30;72.10;;;;;;5057068;28;20029;-77
2021/06/03 12:45:01;;;;;;;0.80;0.80;;;14.20;71.20;;;;;;5063189;28;20090;-77
2021/06/03 12:47:31;;;;;;;0.82;0.82;;;14.30;71.30;;;;;;5053659;28;20025;-77
2021/06/03 12:50:16;;;;;;;1.02;1.02;;;14.20;70.70;;;;;;5068529;28;20032;-77
2021/06/03 12:52:46;;;;;;;0.80;0.80;;;14.10;71.20;;;;;;5066593;28;20027;-77
2021/06/03 12:55:14;;;;;;;1.55;1.20;;;13.80;72.30;;;;;;5068532;28;20058;-77
2021/06/03 12:57:41;;;;;;;1.73;1.15;;;13.90;72.60;;;;;;5049371;28;20090;-76
2021/06/03 13:00:26;;;;;;;0.90;0.90;;;13.80;73.00;;;;;;5066876;28;20456;-76
2021/06/03 13:02:53;;;;;;;1.25;1.10;;;13.90;72.10;;;;;;5066056;28;20037;-77